sensor_id;sensor_type;location;lat;lon;timestamp;pressure;altitude;pressure_sealevel;temperature;humidity
5296;BME280;2670;42.720;23.336;2023-06-19T00:00:42;-18091.72;;;-145.34;100.00
5296;BME280;2670;42.720;23.336;2023-06-19T00:03:09;-18091.72;;;-145.34;100.00
5296;BME280;2670;42.720;23.336;2023-06-19T00:05:35;-18091.72;;;-145.34;100.00
5296;BME280;2670;42.720;23.336;2023-06-19T00:08:04;-18091.72;;;-145.34;100.00
5296;BME280;2670;42.720;23.336;2023-06-19T00:10:32;-18091.72;;;-145.34;100.00
5296;BME280;2670;42.720;23.336;2023-06-19T00:12:58;-18091.72;;;-145.34;100.00
5296;BME280;2670;42.720;23.336;2023-06-19T00:15:25;-18091.72;;;-145.34;100.00
5296;BME280;2670;42.720;23.336;2023-06-19T00:17:55;-18091.72;;;-145.34;100.00
5296;BME280;2670;42.720;23.336;2023-06-19T00:20:22;-18091.72;;;-145.34;100.00
5296;BME280;2670;42.720;23.336;2023-06-19T00:22:49;-18091.72;;;-145.34;100.00
5296;BME280;2670;42.720;23.336;2023-06-19T00:25:18;-18091.72;;;-145.34;100.00
5296;BME280;2670;42.720;23.336;2023-06-19T00:27:46;-18091.72;;;-145.34;100.00
5296;BME280;2670;42.720;23.336;2023-06-19T00:30:12;-18091.72;;;-145.34;100.00
5296;BME280;2670;42.720;23.336;2023-06-19T00:32:39;-18091.72;;;-145.34;100.00
5296;BME280;2670;42.720;23.336;2023-06-19T00:35:13;-18091.72;;;-145.34;100.00
5296;BME280;2670;42.720;23.336;2023-06-19T00:37:40;-18091.72;;;-145.34;100.00
5296;BME280;2670;42.720;23.336;2023-06-19T00:40:14;-18091.72;;;-145.34;100.00
5296;BME280;2670;42.720;23.336;2023-06-19T00:42:43;-18091.72;;;-145.34;100.00
5296;BME280;2670;42.720;23.336;2023-06-19T00:45:10;-18091.72;;;-145.34;100.00
5296;BME280;2670;42.720;23.336;2023-06-19T00:47:37;-18091.72;;;-145.34;100.00
5296;BME280;2670;42.720;23.336;2023-06-19T00:50:05;-18091.72;;;-145.34;100.00
5296;BME280;2670;42.720;23.336;2023-06-19T00:52:31;-18091.72;;;-145.34;100.00
5296;BME280;2670;42.720;23.336;2023-06-19T00:54:58;-18091.72;;;-145.34;100.00
5296;BME280;2670;42.720;23.336;2023-06-19T00:57:25;-18091.72;;;-145.34;100.00
5296;BME280;2670;42.720;23.336;2023-06-19T00:59:53;-18091.72;;;-145.34;100.00
5296;BME280;2670;42.720;23.336;2023-06-19T01:02:20;-18091.72;;;-145.34;100.00
5296;BME280;2670;42.720;23.336;2023-06-19T01:04:49;-18091.72;;;-145.34;100.00
5296;BME280;2670;42.720;23.336;2023-06-19T01:07:19;-18091.72;;;-145.34;100.00
5296;BME280;2670;42.720;23.336;2023-06-19T01:09:52;-18091.72;;;-145.34;100.00
5296;BME280;2670;42.720;23.336;2023-06-19T01:12:23;-18091.72;;;-145.34;100.00
5296;BME280;2670;42.720;23.336;2023-06-19T01:14:58;-18091.72;;;-145.34;100.00
5296;BME280;2670;42.720;23.336;2023-06-19T01:17:25;-18091.72;;;-145.34;100.00
5296;BME280;2670;42.720;23.336;2023-06-19T01:19:53;-18091.72;;;-145.34;100.00
5296;BME280;2670;42.720;23.336;2023-06-19T01:22:28;-18091.72;;;-145.34;100.00
5296;BME280;2670;42.720;23.336;2023-06-19T01:24:55;-18091.72;;;-145.34;100.00
5296;BME280;2670;42.720;23.336;2023-06-19T01:27:23;-18091.72;;;-145.34;100.00
5296;BME280;2670;42.720;23.336;2023-06-19T01:29:51;-18091.72;;;-145.34;100.00
5296;BME280;2670;42.720;23.336;2023-06-19T01:32:22;-18091.72;;;-145.34;100.00
5296;BME280;2670;42.720;23.336;2023-06-19T01:34:52;-18091.72;;;-145.34;100.00
5296;BME280;2670;42.720;23.336;2023-06-19T01:37:21;-18091.72;;;-145.34;100.00
5296;BME280;2670;42.720;23.336;2023-06-19T01:39:50;-18091.72;;;-145.34;100.00
5296;BME280;2670;42.720;23.336;2023-06-19T01:42:17;-18091.72;;;-145.34;100.00
5296;BME280;2670;42.720;23.336;2023-06-19T01:44:44;-18091.72;;;-145.34;100.00
5296;BME280;2670;42.720;23.336;2023-06-19T01:47:12;-18091.72;;;-145.34;100.00
5296;BME280;2670;42.720;23.336;2023-06-19T01:49:40;-18091.72;;;-145.34;100.00
5296;BME280;2670;42.720;23.336;2023-06-19T01:52:07;-18091.72;;;-145.34;100.00
5296;BME280;2670;42.720;23.336;2023-06-19T01:54:35;-18091.72;;;-145.34;100.00
5296;BME280;2670;42.720;23.336;2023-06-19T01:57:03;-18091.72;;;-145.34;100.00
5296;BME280;2670;42.720;23.336;2023-06-19T01:59:30;-18091.72;;;-145.34;100.00
5296;BME280;2670;42.720;23.336;2023-06-19T02:01:57;-18091.72;;;-145.34;100.00
5296;BME280;2670;42.720;23.336;2023-06-19T02:04:24;-18091.72;;;-145.34;100.00
5296;BME280;2670;42.720;23.336;2023-06-19T02:06:50;-18091.72;;;-145.34;100.00
5296;BME280;2670;42.720;23.336;2023-06-19T02:09:17;-18091.72;;;-145.34;100.00
5296;BME280;2670;42.720;23.336;2023-06-19T02:11:44;-18091.72;;;-145.34;100.00
5296;BME280;2670;42.720;23.336;2023-06-19T02:14:12;-18091.72;;;-145.34;100.00
5296;BME280;2670;42.720;23.336;2023-06-19T02:16:39;-18091.72;;;-145.34;100.00
5296;BME280;2670;42.720;23.336;2023-06-19T02:19:09;-18091.72;;;-145.34;100.00
5296;BME280;2670;42.720;23.336;2023-06-19T02:21:36;-18091.72;;;-145.34;100.00
5296;BME280;2670;42.720;23.336;2023-06-19T02:24:04;-18091.72;;;-145.34;100.00
5296;BME280;2670;42.720;23.336;2023-06-19T02:26:31;-18091.72;;;-145.34;100.00
5296;BME280;2670;42.720;23.336;2023-06-19T02:28:57;-18091.72;;;-145.34;100.00
5296;BME280;2670;42.720;23.336;2023-06-19T02:31:26;-18091.72;;;-145.34;100.00
5296;BME280;2670;42.720;23.336;2023-06-19T02:33:52;-18091.72;;;-145.34;100.00
5296;BME280;2670;42.720;23.336;2023-06-19T02:36:19;-18091.72;;;-145.34;100.00
5296;BME280;2670;42.720;23.336;2023-06-19T02:38:46;-18091.72;;;-145.34;100.00
5296;BME280;2670;42.720;23.336;2023-06-19T02:41:13;-18091.72;;;-145.34;100.00
5296;BME280;2670;42.720;23.336;2023-06-19T02:43:40;-18091.72;;;-145.34;100.00
5296;BME280;2670;42.720;23.336;2023-06-19T02:46:07;-18091.72;;;-145.34;100.00
5296;BME280;2670;42.720;23.336;2023-06-19T02:48:35;-18091.72;;;-145.34;100.00
5296;BME280;2670;42.720;23.336;2023-06-19T02:51:02;-18091.72;;;-145.34;100.00
5296;BME280;2670;42.720;23.336;2023-06-19T02:53:29;-18091.72;;;-145.34;100.00
5296;BME280;2670;42.720;23.336;2023-06-19T02:55:55;-18091.72;;;-145.34;100.00
5296;BME280;2670;42.720;23.336;2023-06-19T02:58:22;-18091.72;;;-145.34;100.00
5296;BME280;2670;42.720;23.336;2023-06-19T03:00:49;-18091.72;;;-145.34;100.00
5296;BME280;2670;42.720;23.336;2023-06-19T03:03:16;-18091.72;;;-145.34;100.00
5296;BME280;2670;42.720;23.336;2023-06-19T03:05:45;-18091.72;;;-145.34;100.00
5296;BME280;2670;42.720;23.336;2023-06-19T03:08:12;-18091.72;;;-145.34;100.00
5296;BME280;2670;42.720;23.336;2023-06-19T03:10:39;-18091.72;;;-145.34;100.00
5296;BME280;2670;42.720;23.336;2023-06-19T03:13:05;-18091.72;;;-145.34;100.00
5296;BME280;2670;42.720;23.336;2023-06-19T03:15:32;-18091.72;;;-145.34;100.00
5296;BME280;2670;42.720;23.336;2023-06-19T03:17:59;-18091.72;;;-145.34;100.00
5296;BME280;2670;42.720;23.336;2023-06-19T03:20:28;-18091.72;;;-145.34;100.00
5296;BME280;2670;42.720;23.336;2023-06-19T03:22:56;-18091.72;;;-145.34;100.00
5296;BME280;2670;42.720;23.336;2023-06-19T03:25:23;-18091.72;;;-145.34;100.00
5296;BME280;2670;42.720;23.336;2023-06-19T03:27:50;-18091.72;;;-145.34;100.00
5296;BME280;2670;42.720;23.336;2023-06-19T03:30:17;-18091.72;;;-145.34;100.00
5296;BME280;2670;42.720;23.336;2023-06-19T03:32:44;-18091.72;;;-145.34;100.00
5296;BME280;2670;42.720;23.336;2023-06-19T03:35:11;-18091.72;;;-145.34;100.00
5296;BME280;2670;42.720;23.336;2023-06-19T03:37:38;-18091.72;;;-145.34;100.00
5296;BME280;2670;42.720;23.336;2023-06-19T03:40:07;-18091.72;;;-145.34;100.00
5296;BME280;2670;42.720;23.336;2023-06-19T03:42:38;-18091.72;;;-145.34;100.00
5296;BME280;2670;42.720;23.336;2023-06-19T03:45:06;-18091.72;;;-145.34;100.00
5296;BME280;2670;42.720;23.336;2023-06-19T03:47:33;-18091.72;;;-145.34;100.00
5296;BME280;2670;42.720;23.336;2023-06-19T03:50:00;-18091.72;;;-145.34;100.00
5296;BME280;2670;42.720;23.336;2023-06-19T03:52:27;-18091.72;;;-145.34;100.00
5296;BME280;2670;42.720;23.336;2023-06-19T03:54:53;-18091.72;;;-145.34;100.00
5296;BME280;2670;42.720;23.336;2023-06-19T03:57:22;-18091.72;;;-145.34;100.00
5296;BME280;2670;42.720;23.336;2023-06-19T03:59:48;-18091.72;;;-145.34;100.00
5296;BME280;2670;42.720;23.336;2023-06-19T04:02:17;-18091.72;;;-145.34;100.00
5296;BME280;2670;42.720;23.336;2023-06-19T04:04:44;-18091.72;;;-145.34;100.00
5296;BME280;2670;42.720;23.336;2023-06-19T04:07:10;-18091.72;;;-145.34;100.00
5296;BME280;2670;42.720;23.336;2023-06-19T04:09:38;-18091.72;;;-145.34;100.00
5296;BME280;2670;42.720;23.336;2023-06-19T04:12:05;-18091.72;;;-145.34;100.00
5296;BME280;2670;42.720;23.336;2023-06-19T04:14:34;-18091.72;;;-145.34;100.00
5296;BME280;2670;42.720;23.336;2023-06-19T04:17:00;-18091.72;;;-145.34;100.00
5296;BME280;2670;42.720;23.336;2023-06-19T04:19:27;-18091.72;;;-145.34;100.00
5296;BME280;2670;42.720;23.336;2023-06-19T04:21:54;-18091.72;;;-145.34;100.00
5296;BME280;2670;42.720;23.336;2023-06-19T04:24:21;-18091.72;;;-145.34;100.00
5296;BME280;2670;42.720;23.336;2023-06-19T04:26:47;-18091.72;;;-145.34;100.00
5296;BME280;2670;42.720;23.336;2023-06-19T04:29:14;-18091.72;;;-145.34;100.00
5296;BME280;2670;42.720;23.336;2023-06-19T04:31:43;-18091.72;;;-145.34;100.00
5296;BME280;2670;42.720;23.336;2023-06-19T04:34:12;-18091.72;;;-145.34;100.00
5296;BME280;2670;42.720;23.336;2023-06-19T04:36:39;-18091.72;;;-145.34;100.00
5296;BME280;2670;42.720;23.336;2023-06-19T04:39:06;-18091.72;;;-145.34;100.00
5296;BME280;2670;42.720;23.336;2023-06-19T04:41:34;-18091.72;;;-145.34;100.00
5296;BME280;2670;42.720;23.336;2023-06-19T04:44:04;-18091.72;;;-145.34;100.00
5296;BME280;2670;42.720;23.336;2023-06-19T04:46:31;-18091.72;;;-145.34;100.00
5296;BME280;2670;42.720;23.336;2023-06-19T04:48:59;-18091.72;;;-145.34;100.00
5296;BME280;2670;42.720;23.336;2023-06-19T04:51:29;-18091.72;;;-145.34;100.00
5296;BME280;2670;42.720;23.336;2023-06-19T04:53:55;-18091.72;;;-145.34;100.00
5296;BME280;2670;42.720;23.336;2023-06-19T04:56:22;-18091.72;;;-145.34;100.00
5296;BME280;2670;42.720;23.336;2023-06-19T04:58:49;-18091.72;;;-145.34;100.00
5296;BME280;2670;42.720;23.336;2023-06-19T05:01:17;-18091.72;;;-145.34;100.00
5296;BME280;2670;42.720;23.336;2023-06-19T05:03:48;-18091.72;;;-145.34;100.00
5296;BME280;2670;42.720;23.336;2023-06-19T05:06:16;-18091.72;;;-145.34;100.00
5296;BME280;2670;42.720;23.336;2023-06-19T05:08:43;-18091.72;;;-145.34;100.00
5296;BME280;2670;42.720;23.336;2023-06-19T05:11:10;-18091.72;;;-145.34;100.00
5296;BME280;2670;42.720;23.336;2023-06-19T05:13:36;-18091.72;;;-145.34;100.00
5296;BME280;2670;42.720;23.336;2023-06-19T05:16:03;-18091.72;;;-145.34;100.00
5296;BME280;2670;42.720;23.336;2023-06-19T05:18:30;-18091.72;;;-145.34;100.00
5296;BME280;2670;42.720;23.336;2023-06-19T05:20:57;-18091.72;;;-145.34;99.51
5296;BME280;2670;42.720;23.336;2023-06-19T05:23:25;-18091.72;;;-145.34;100.00
5296;BME280;2670;42.720;23.336;2023-06-19T05:25:51;-18091.72;;;-145.34;100.00
5296;BME280;2670;42.720;23.336;2023-06-19T05:28:18;-18091.72;;;-145.34;99.52
5296;BME280;2670;42.720;23.336;2023-06-19T05:30:45;-18091.72;;;-145.34;98.59
5296;BME280;2670;42.720;23.336;2023-06-19T05:33:12;-18091.72;;;-145.34;97.26
5296;BME280;2670;42.720;23.336;2023-06-19T05:35:41;-18091.72;;;-145.34;98.48
5296;BME280;2670;42.720;23.336;2023-06-19T05:38:08;-18091.72;;;-145.34;98.09
5296;BME280;2670;42.720;23.336;2023-06-19T05:40:36;-18091.72;;;-145.34;96.74
5296;BME280;2670;42.720;23.336;2023-06-19T05:43:03;-18091.72;;;-145.34;96.59
5296;BME280;2670;42.720;23.336;2023-06-19T05:45:29;-18091.72;;;-145.34;97.10
5296;BME280;2670;42.720;23.336;2023-06-19T05:47:56;-18091.72;;;-145.34;96.75
5296;BME280;2670;42.720;23.336;2023-06-19T05:50:23;-18091.72;;;-145.34;96.91
5296;BME280;2670;42.720;23.336;2023-06-19T05:52:50;-18091.72;;;-145.34;98.03
5296;BME280;2670;42.720;23.336;2023-06-19T05:55:18;-18091.72;;;-145.34;97.75
5296;BME280;2670;42.720;23.336;2023-06-19T05:57:46;-18091.72;;;-145.34;96.96
5296;BME280;2670;42.720;23.336;2023-06-19T06:00:13;-18091.72;;;-145.34;96.76
5296;BME280;2670;42.720;23.336;2023-06-19T06:02:41;-18091.72;;;-145.34;99.14
5296;BME280;2670;42.720;23.336;2023-06-19T06:05:08;-18091.72;;;-145.34;99.07
5296;BME280;2670;42.720;23.336;2023-06-19T06:07:35;-18091.72;;;-145.34;98.66
5296;BME280;2670;42.720;23.336;2023-06-19T06:10:02;-18091.72;;;-145.34;99.16
5296;BME280;2670;42.720;23.336;2023-06-19T06:12:29;-18091.72;;;-145.34;96.23
5296;BME280;2670;42.720;23.336;2023-06-19T06:14:57;-18091.72;;;-145.34;97.22
5296;BME280;2670;42.720;23.336;2023-06-19T06:17:24;-18091.72;;;-145.34;96.44
5296;BME280;2670;42.720;23.336;2023-06-19T06:19:50;-18091.72;;;-145.34;95.27
5296;BME280;2670;42.720;23.336;2023-06-19T06:22:17;-18091.72;;;-145.34;96.89
5296;BME280;2670;42.720;23.336;2023-06-19T06:24:44;-18091.72;;;-145.34;97.46
5296;BME280;2670;42.720;23.336;2023-06-19T06:27:12;-18091.72;;;-145.34;97.92
5296;BME280;2670;42.720;23.336;2023-06-19T06:29:38;-18091.72;;;-145.34;97.98
5296;BME280;2670;42.720;23.336;2023-06-19T06:32:07;-18091.72;;;-145.34;94.50
5296;BME280;2670;42.720;23.336;2023-06-19T06:34:34;-18091.72;;;-145.34;94.80
5296;BME280;2670;42.720;23.336;2023-06-19T06:37:01;-18091.72;;;-145.34;95.16
5296;BME280;2670;42.720;23.336;2023-06-19T06:39:28;-18091.72;;;-145.34;92.03
5296;BME280;2670;42.720;23.336;2023-06-19T06:41:56;-18091.72;;;-145.34;91.98
5296;BME280;2670;42.720;23.336;2023-06-19T06:44:22;-18091.72;;;-145.34;92.28
5296;BME280;2670;42.720;23.336;2023-06-19T06:46:49;-18091.72;;;-145.34;93.11
5296;BME280;2670;42.720;23.336;2023-06-19T06:49:17;-18091.72;;;-145.34;90.82
5296;BME280;2670;42.720;23.336;2023-06-19T06:51:44;-18091.72;;;-145.34;90.52
5296;BME280;2670;42.720;23.336;2023-06-19T06:54:11;-18091.72;;;-145.34;90.19
5296;BME280;2670;42.720;23.336;2023-06-19T06:56:37;-18091.72;;;-145.34;88.01
5296;BME280;2670;42.720;23.336;2023-06-19T06:59:04;-18091.72;;;-145.34;88.33
5296;BME280;2670;42.720;23.336;2023-06-19T07:01:31;-18091.72;;;-145.34;88.94
5296;BME280;2670;42.720;23.336;2023-06-19T07:03:58;-18091.72;;;-145.34;90.62
5296;BME280;2670;42.720;23.336;2023-06-19T07:06:26;-18091.72;;;-145.34;88.74
5296;BME280;2670;42.720;23.336;2023-06-19T07:08:52;-18091.72;;;-145.34;88.88
5296;BME280;2670;42.720;23.336;2023-06-19T07:11:19;-18091.72;;;-145.34;88.96
5296;BME280;2670;42.720;23.336;2023-06-19T07:13:46;-18091.72;;;-145.34;88.22
5296;BME280;2670;42.720;23.336;2023-06-19T07:16:13;-18091.72;;;-145.34;86.21
5296;BME280;2670;42.720;23.336;2023-06-19T07:18:39;-18091.72;;;-145.34;86.95
5296;BME280;2670;42.720;23.336;2023-06-19T07:21:10;-18091.72;;;-145.34;85.61
5296;BME280;2670;42.720;23.336;2023-06-19T07:23:39;-18091.72;;;-145.34;87.41
5296;BME280;2670;42.720;23.336;2023-06-19T07:26:06;-18091.72;;;-145.34;86.17
5296;BME280;2670;42.720;23.336;2023-06-19T07:28:33;-18091.72;;;-145.34;84.85
5296;BME280;2670;42.720;23.336;2023-06-19T07:31:01;-18091.72;;;-145.34;81.41
5296;BME280;2670;42.720;23.336;2023-06-19T07:33:28;-18091.72;;;-145.34;81.82
5296;BME280;2670;42.720;23.336;2023-06-19T07:35:55;-18091.72;;;-145.34;83.77
5296;BME280;2670;42.720;23.336;2023-06-19T07:38:22;-18091.72;;;-145.34;80.22
5296;BME280;2670;42.720;23.336;2023-06-19T07:40:51;-18091.72;;;-145.34;82.97
5296;BME280;2670;42.720;23.336;2023-06-19T07:43:17;-18091.72;;;-145.34;78.11
5296;BME280;2670;42.720;23.336;2023-06-19T07:45:44;-18091.72;;;-145.34;78.55
5296;BME280;2670;42.720;23.336;2023-06-19T07:48:11;-18091.72;;;-145.34;78.64
5296;BME280;2670;42.720;23.336;2023-06-19T07:50:38;-18091.72;;;-145.34;78.72
5296;BME280;2670;42.720;23.336;2023-06-19T07:53:04;-18091.72;;;-145.34;77.91
5296;BME280;2670;42.720;23.336;2023-06-19T07:55:32;-18091.72;;;-145.34;76.62
5296;BME280;2670;42.720;23.336;2023-06-19T07:58:01;-18091.72;;;-145.34;74.05
5296;BME280;2670;42.720;23.336;2023-06-19T08:00:28;-18091.72;;;-145.34;67.48
5296;BME280;2670;42.720;23.336;2023-06-19T08:02:56;-18091.72;;;-145.34;61.65
5296;BME280;2670;42.720;23.336;2023-06-19T08:05:22;-18091.72;;;-145.34;61.35
5296;BME280;2670;42.720;23.336;2023-06-19T08:07:49;-18091.72;;;-145.34;59.57
5296;BME280;2670;42.720;23.336;2023-06-19T08:10:16;-18091.72;;;-145.34;60.40
5296;BME280;2670;42.720;23.336;2023-06-19T08:12:44;-18091.72;;;-145.34;58.77
5296;BME280;2670;42.720;23.336;2023-06-19T08:15:12;-18091.72;;;-145.34;60.31
5296;BME280;2670;42.720;23.336;2023-06-19T08:17:39;-18091.72;;;-145.34;59.51
5296;BME280;2670;42.720;23.336;2023-06-19T08:20:07;-18091.72;;;-145.34;60.28
5296;BME280;2670;42.720;23.336;2023-06-19T08:22:35;-18091.72;;;-145.34;59.67
5296;BME280;2670;42.720;23.336;2023-06-19T08:25:02;-18091.72;;;-145.34;59.40
5296;BME280;2670;42.720;23.336;2023-06-19T08:27:29;-18091.72;;;-145.34;59.38
5296;BME280;2670;42.720;23.336;2023-06-19T08:29:56;-18091.72;;;-145.34;57.40
5296;BME280;2670;42.720;23.336;2023-06-19T08:32:24;-18091.72;;;-145.34;58.30
5296;BME280;2670;42.720;23.336;2023-06-19T08:34:52;-18091.72;;;-145.34;59.31
5296;BME280;2670;42.720;23.336;2023-06-19T08:37:18;-18091.72;;;-145.34;56.63
5296;BME280;2670;42.720;23.336;2023-06-19T08:39:45;-18091.72;;;-145.34;58.09
5296;BME280;2670;42.720;23.336;2023-06-19T08:42:12;-18091.72;;;-145.34;59.27
5296;BME280;2670;42.720;23.336;2023-06-19T08:44:39;-18091.72;;;-145.34;59.92
5296;BME280;2670;42.720;23.336;2023-06-19T08:47:06;-18091.72;;;-145.34;59.98
5296;BME280;2670;42.720;23.336;2023-06-19T08:49:36;-18091.72;;;-145.34;55.72
5296;BME280;2670;42.720;23.336;2023-06-19T08:52:03;-18091.72;;;-145.34;57.07
5296;BME280;2670;42.720;23.336;2023-06-19T08:54:31;-18091.72;;;-145.34;56.81
5296;BME280;2670;42.720;23.336;2023-06-19T08:57:00;-18091.72;;;-145.34;57.87
5296;BME280;2670;42.720;23.336;2023-06-19T08:59:27;-18091.72;;;-145.34;57.58
5296;BME280;2670;42.720;23.336;2023-06-19T09:01:54;-18091.72;;;-145.34;55.15
5296;BME280;2670;42.720;23.336;2023-06-19T09:04:23;-18091.72;;;-145.34;54.81
5296;BME280;2670;42.720;23.336;2023-06-19T09:06:55;-18091.72;;;-145.34;54.93
5296;BME280;2670;42.720;23.336;2023-06-19T09:09:24;-18091.72;;;-145.34;54.72
5296;BME280;2670;42.720;23.336;2023-06-19T09:11:58;-18091.72;;;-145.34;55.62
5296;BME280;2670;42.720;23.336;2023-06-19T09:14:31;-18091.72;;;-145.34;56.42
5296;BME280;2670;42.720;23.336;2023-06-19T09:16:58;-18091.72;;;-145.34;54.84
5296;BME280;2670;42.720;23.336;2023-06-19T09:19:25;-18091.72;;;-145.34;53.89
5296;BME280;2670;42.720;23.336;2023-06-19T09:21:53;-18091.72;;;-145.34;52.38
5296;BME280;2670;42.720;23.336;2023-06-19T09:24:20;-18091.72;;;-145.34;53.55
5296;BME280;2670;42.720;23.336;2023-06-19T09:26:46;-18091.72;;;-145.34;53.74
5296;BME280;2670;42.720;23.336;2023-06-19T09:29:14;-18091.72;;;-145.34;54.18
5296;BME280;2670;42.720;23.336;2023-06-19T09:31:43;-18091.72;;;-145.34;52.10
5296;BME280;2670;42.720;23.336;2023-06-19T09:34:10;-18091.72;;;-145.34;51.45
5296;BME280;2670;42.720;23.336;2023-06-19T09:36:37;-18091.72;;;-145.34;50.82
5296;BME280;2670;42.720;23.336;2023-06-19T09:39:05;-18091.72;;;-145.34;52.52
5296;BME280;2670;42.720;23.336;2023-06-19T09:41:35;-18091.72;;;-145.34;51.18
5296;BME280;2670;42.720;23.336;2023-06-19T09:44:04;-18091.72;;;-145.34;50.27
5296;BME280;2670;42.720;23.336;2023-06-19T09:46:39;-18091.72;;;-145.34;50.89
5296;BME280;2670;42.720;23.336;2023-06-19T09:49:08;-18091.72;;;-145.34;50.15
5296;BME280;2670;42.720;23.336;2023-06-19T09:51:37;-18091.72;;;-145.34;50.74
5296;BME280;2670;42.720;23.336;2023-06-19T09:54:09;-18091.72;;;-145.34;50.85
5296;BME280;2670;42.720;23.336;2023-06-19T09:56:37;-18091.72;;;-145.34;51.86
5296;BME280;2670;42.720;23.336;2023-06-19T09:59:04;-18091.72;;;-145.34;50.16
5296;BME280;2670;42.720;23.336;2023-06-19T10:01:35;-18091.72;;;-145.34;49.35
5296;BME280;2670;42.720;23.336;2023-06-19T10:04:04;-18091.72;;;-145.34;50.29
5296;BME280;2670;42.720;23.336;2023-06-19T10:06:31;-18091.72;;;-145.34;49.70
5296;BME280;2670;42.720;23.336;2023-06-19T10:09:06;-18091.72;;;-145.34;50.13
5296;BME280;2670;42.720;23.336;2023-06-19T10:11:46;-18091.72;;;-145.34;49.97
5296;BME280;2670;42.720;23.336;2023-06-19T10:14:13;-18091.72;;;-145.34;49.75
5296;BME280;2670;42.720;23.336;2023-06-19T10:16:43;-18091.72;;;-145.34;50.34
5296;BME280;2670;42.720;23.336;2023-06-19T10:19:14;-18091.72;;;-145.34;50.01
5296;BME280;2670;42.720;23.336;2023-06-19T10:21:46;-18091.72;;;-145.34;49.58
5296;BME280;2670;42.720;23.336;2023-06-19T10:24:14;-18091.72;;;-145.34;48.26
5296;BME280;2670;42.720;23.336;2023-06-19T10:26:41;-18091.72;;;-145.34;48.64
5296;BME280;2670;42.720;23.336;2023-06-19T10:29:16;-18091.72;;;-145.34;50.09
5296;BME280;2670;42.720;23.336;2023-06-19T10:31:43;-18091.72;;;-145.34;50.08
5296;BME280;2670;42.720;23.336;2023-06-19T10:34:10;-18091.72;;;-145.34;49.31
5296;BME280;2670;42.720;23.336;2023-06-19T10:36:38;-18091.72;;;-145.34;48.58
5296;BME280;2670;42.720;23.336;2023-06-19T10:39:05;-18091.72;;;-145.34;49.49
5296;BME280;2670;42.720;23.336;2023-06-19T10:41:32;-18091.72;;;-145.34;48.66
5296;BME280;2670;42.720;23.336;2023-06-19T10:44:00;-18091.72;;;-145.34;48.38
5296;BME280;2670;42.720;23.336;2023-06-19T10:46:32;-18091.72;;;-145.34;50.45
5296;BME280;2670;42.720;23.336;2023-06-19T10:49:01;-18091.72;;;-145.34;49.06
5296;BME280;2670;42.720;23.336;2023-06-19T10:51:29;-18091.72;;;-145.34;48.98
5296;BME280;2670;42.720;23.336;2023-06-19T10:53:57;-18091.72;;;-145.34;49.35
5296;BME280;2670;42.720;23.336;2023-06-19T10:56:24;-18091.72;;;-145.34;48.56
5296;BME280;2670;42.720;23.336;2023-06-19T10:58:57;-18091.72;;;-145.34;48.67
5296;BME280;2670;42.720;23.336;2023-06-19T11:01:33;-18091.72;;;-145.34;48.83
5296;BME280;2670;42.720;23.336;2023-06-19T11:04:02;-18091.72;;;-145.34;49.02
5296;BME280;2670;42.720;23.336;2023-06-19T11:06:29;-18091.72;;;-145.34;49.19
5296;BME280;2670;42.720;23.336;2023-06-19T11:08:56;-18091.72;;;-145.34;49.87
5296;BME280;2670;42.720;23.336;2023-06-19T11:11:34;-18091.72;;;-145.34;50.38
5296;BME280;2670;42.720;23.336;2023-06-19T11:14:01;-18091.72;;;-145.34;49.19
5296;BME280;2670;42.720;23.336;2023-06-19T11:16:28;-18091.72;;;-145.34;50.18
5296;BME280;2670;42.720;23.336;2023-06-19T11:18:57;-18091.72;;;-145.34;52.16
5296;BME280;2670;42.720;23.336;2023-06-19T11:21:29;-18091.72;;;-145.34;52.84
5296;BME280;2670;42.720;23.336;2023-06-19T11:23:58;-18091.72;;;-145.34;51.72
5296;BME280;2670;42.720;23.336;2023-06-19T11:26:25;-18091.72;;;-145.34;50.93
5296;BME280;2670;42.720;23.336;2023-06-19T11:28:52;-18091.72;;;-145.34;51.00
5296;BME280;2670;42.720;23.336;2023-06-19T11:31:25;-18091.72;;;-145.34;48.76
5296;BME280;2670;42.720;23.336;2023-06-19T11:33:57;-18091.72;;;-145.34;50.01
5296;BME280;2670;42.720;23.336;2023-06-19T11:36:24;-18091.72;;;-145.34;50.01
5296;BME280;2670;42.720;23.336;2023-06-19T11:38:51;-18091.72;;;-145.34;49.66
5296;BME280;2670;42.720;23.336;2023-06-19T11:41:25;-18091.72;;;-145.34;50.53
5296;BME280;2670;42.720;23.336;2023-06-19T11:43:58;-18091.72;;;-145.34;51.16
5296;BME280;2670;42.720;23.336;2023-06-19T11:46:28;-18091.72;;;-145.34;51.55
5296;BME280;2670;42.720;23.336;2023-06-19T11:49:07;-18091.72;;;-145.34;50.55
5296;BME280;2670;42.720;23.336;2023-06-19T11:51:34;-18091.72;;;-145.34;51.21
5296;BME280;2670;42.720;23.336;2023-06-19T11:54:01;-18091.72;;;-145.34;50.51
5296;BME280;2670;42.720;23.336;2023-06-19T11:56:28;-18091.72;;;-145.34;50.37
5296;BME280;2670;42.720;23.336;2023-06-19T11:58:55;-18091.72;;;-145.34;50.14
5296;BME280;2670;42.720;23.336;2023-06-19T12:01:22;-18091.72;;;-145.34;51.28
5296;BME280;2670;42.720;23.336;2023-06-19T12:03:48;-18091.72;;;-145.34;51.57
5296;BME280;2670;42.720;23.336;2023-06-19T12:06:17;-18091.72;;;-145.34;50.63
5296;BME280;2670;42.720;23.336;2023-06-19T12:08:44;-18091.72;;;-145.34;49.95
5296;BME280;2670;42.720;23.336;2023-06-19T12:11:11;-18091.72;;;-145.34;50.66
5296;BME280;2670;42.720;23.336;2023-06-19T12:13:39;-18091.72;;;-145.34;51.84
5296;BME280;2670;42.720;23.336;2023-06-19T12:16:06;-18091.72;;;-145.34;51.43
5296;BME280;2670;42.720;23.336;2023-06-19T12:18:33;-18091.72;;;-145.34;51.18
5296;BME280;2670;42.720;23.336;2023-06-19T12:21:00;-18091.72;;;-145.34;51.51
5296;BME280;2670;42.720;23.336;2023-06-19T12:23:28;-18091.72;;;-145.34;50.67
5296;BME280;2670;42.720;23.336;2023-06-19T12:25:55;-18091.72;;;-145.34;51.68
5296;BME280;2670;42.720;23.336;2023-06-19T12:28:22;-18091.72;;;-145.34;51.22
5296;BME280;2670;42.720;23.336;2023-06-19T12:30:49;-18091.72;;;-145.34;51.62
5296;BME280;2670;42.720;23.336;2023-06-19T12:33:16;-18091.72;;;-145.34;50.26
5296;BME280;2670;42.720;23.336;2023-06-19T12:35:44;-18091.72;;;-145.34;50.20
5296;BME280;2670;42.720;23.336;2023-06-19T12:38:11;-18091.72;;;-145.34;51.78